Terminal Aerodrome Forecast
Issued by NWS Billings, MT

Home | Current Version | Previous Version | Text Only | Print | Product List | Glossary On
Versions: 1 2 3 4 5 6 7 8 9 10 11 12 13 14
000
FTUS45 KBYZ 220537
TAFMLS
TAF
KMLS 220537Z 2206/2306 25007KT P6SM SKC
     FM221000 22012KT P6SM BKN100 WS017/27042KT
     FM221700 27030G48KT P6SM VCSH BKN060
     FM222300 29027G48KT P6SM VCSH BKN060=

USA.gov is the U.S. government's official web portal to all federal, state and local government web resources and services.